Time,TemperatureF,DewpointF,PressureIn,WindDirection,WindDirectionDegrees,WindSpeedMPH,WindSpeedGustMPH,Humidity,HourlyPrecipIn,Conditions,Clouds,dailyrainin,SoftwareType,DateUTC
2013-03-01 00:00:00,50.4,37.5,30.00,West,270,0.0,0.0,61,0.00,,---,0.00,VWS V14.00,2013-03-01 05:00:00,
2013-03-01 00:05:00,50.4,37.5,30.00,West,281,0.0,1.0,61,0.00,,---,0.00,VWS V14.00,2013-03-01 05:05:00,
2013-03-01 00:06:00,50.3,37.4,30.00,West,280,0.0,1.0,61,0.00,,---,0.00,VWS V14.00,2013-03-01 05:06:00,
2013-03-01 00:11:00,50.3,37.4,30.00,WNW,293,0.0,1.0,61,0.00,,---,0.00,VWS V14.00,2013-03-01 05:11:00,
2013-03-01 00:16:00,50.3,37.4,30.00,WNW,287,0.0,1.0,61,0.00,,---,0.00,VWS V14.00,2013-03-01 05:16:00,
2013-03-01 00:21:00,50.2,37.3,30.00,SW,235,0.0,1.0,61,0.00,,---,0.00,VWS V14.00,2013-03-01 05:21:00,
2013-03-01 00:26:00,50.2,36.9,30.00,WNW,290,2.0,3.0,60,0.00,,---,0.00,VWS V14.00,2013-03-01 05:26:00,
2013-03-01 00:30:00,50.2,36.9,30.00,WNW,302,0.0,3.0,60,0.00,,---,0.00,VWS V14.00,2013-03-01 05:30:00,
2013-03-01 00:31:00,50.3,37.0,30.00,WNW,282,0.0,3.0,60,0.00,,---,0.00,VWS V14.00,2013-03-01 05:31:00,
2013-03-01 00:36:00,50.2,36.9,30.00,WNW,297,0.0,3.0,60,0.00,,---,0.00,VWS V14.00,2013-03-01 05:36:00,
2013-03-01 00:41:00,50.1,36.8,30.00,WNW,288,0.0,3.0,60,0.00,,---,0.00,VWS V14.00,2013-03-01 05:41:00,
2013-03-01 00:46:00,49.9,36.6,30.00,WNW,293,0.0,3.0,60,0.00,,---,0.00,VWS V14.00,2013-03-01 05:46:00,
2013-03-01 00:51:00,50.0,37.1,30.00,West,278,0.0,3.0,61,0.00,,---,0.00,VWS V14.00,2013-03-01 05:51:00,
2013-03-01 00:56:00,49.9,36.6,29.99,West,278,0.0,0.0,60,0.00,,---,0.00,VWS V14.00,2013-03-01 05:56:00,
2013-03-01 01:00:00,49.9,37.0,29.99,West,278,0.0,3.0,61,0.00,,---,0.00,VWS V14.00,2013-03-01 06:00:00,
2013-03-01 01:01:00,49.7,36.8,30.00,West,278,0.0,0.0,61,0.00,,---,0.00,VWS V14.00,2013-03-01 06:01:00,
2013-03-01 01:06:00,49.6,36.7,30.00,WNW,294,0.0,0.0,61,0.00,,---,0.00,VWS V14.00,2013-03-01 06:06:00,
2013-03-01 01:11:00,49.4,36.9,30.00,WNW,288,0.0,0.0,62,0.00,,---,0.00,VWS V14.00,2013-03-01 06:11:00,
2013-03-01 01:16:00,49.2,36.8,30.00,West,281,0.0,0.0,62,0.00,,---,0.00,VWS V14.00,2013-03-01 06:16:00,
2013-03-01 01:21:00,49.1,37.1,30.00,West,281,0.0,0.0,63,0.00,,---,0.00,VWS V14.00,2013-03-01 06:21:00,
2013-03-01 01:26:00,49.0,37.0,30.00,WNW,290,0.0,0.0,63,0.00,,---,0.00,VWS V14.00,2013-03-01 06:26:00,
2013-03-01 01:30:00,49.0,37.0,30.00,WNW,289,0.0,0.0,63,0.00,,---,0.00,VWS V14.00,2013-03-01 06:30:00,
2013-03-01 01:31:00,48.8,36.8,30.00,WNW,289,0.0,0.0,63,0.00,,---,0.00,VWS V14.00,2013-03-01 06:31:00,
2013-03-01 01:36:00,48.6,37.0,30.00,WNW,290,0.0,0.0,64,0.00,,---,0.00,VWS V14.00,2013-03-01 06:36:00,
2013-03-01 01:41:00,48.5,37.3,30.00,West,274,0.0,0.0,65,0.00,,---,0.00,VWS V14.00,2013-03-01 06:41:00,
2013-03-01 01:46:00,48.4,37.2,30.00,West,280,0.0,0.0,65,0.00,,---,0.00,VWS V14.00,2013-03-01 06:46:00,
2013-03-01 01:51:00,48.5,37.3,30.00,WNW,291,1.0,1.0,65,0.00,,---,0.00,VWS V14.00,2013-03-01 06:51:00,
2013-03-01 01:56:00,48.5,37.3,30.00,West,278,0.0,1.0,65,0.00,,---,0.00,VWS V14.00,2013-03-01 06:56:00,
2013-03-01 02:00:00,48.5,37.3,30.00,West,278,0.0,1.0,65,0.00,,---,0.00,VWS V14.00,2013-03-01 07:00:00,
2013-03-01 02:01:00,48.5,36.9,30.00,NW,314,0.0,2.0,64,0.00,,---,0.00,VWS V14.00,2013-03-01 07:01:00,
2013-03-01 02:06:00,48.6,37.0,30.00,West,281,0.0,2.0,64,0.00,,---,0.00,VWS V14.00,2013-03-01 07:06:00,
2013-03-01 02:11:00,48.6,37.0,30.00,West,266,1.0,2.0,64,0.00,,---,0.00,VWS V14.00,2013-03-01 07:11:00,
2013-03-01 02:16:00,48.7,37.1,30.00,WNW,293,1.0,2.0,64,0.00,,---,0.00,VWS V14.00,2013-03-01 07:16:00,
2013-03-01 02:21:00,48.6,37.0,30.00,WNW,293,0.0,2.0,64,0.00,,---,0.00,VWS V14.00,2013-03-01 07:21:00,
2013-03-01 02:26:00,48.5,36.9,30.00,NW,314,0.0,0.0,64,0.00,,---,0.00,VWS V14.00,2013-03-01 07:26:00,
2013-03-01 02:30:00,46.5,36.5,29.99,WSW,256,0.0,2.0,68,0.00,,---,0.00,VWS V14.00,2013-03-01 07:30:00,
2013-03-01 02:31:00,48.3,37.1,29.99,West,280,0.0,1.0,65,0.00,,---,0.00,VWS V14.00,2013-03-01 07:31:00,
2013-03-01 02:36:00,48.2,37.0,30.00,WNW,295,0.0,3.0,65,0.00,,---,0.00,VWS V14.00,2013-03-01 07:36:00,
2013-03-01 02:41:00,48.1,36.9,30.00,WNW,298,0.0,3.0,65,0.00,,---,0.00,VWS V14.00,2013-03-01 07:41:00,
2013-03-01 02:46:00,48.0,36.8,30.00,WNW,286,0.0,3.0,65,0.00,,---,0.00,VWS V14.00,2013-03-01 07:46:00,
2013-03-01 02:51:00,47.9,36.7,29.99,WNW,282,1.0,3.0,65,0.00,,---,0.00,VWS V14.00,2013-03-01 07:51:00,
2013-03-01 02:56:00,47.8,36.6,29.99,WNW,288,0.0,1.0,65,0.00,,---,0.00,VWS V14.00,2013-03-01 07:56:00,
2013-03-01 03:00:00,46.0,37.1,29.99,WSW,256,0.0,0.0,71,0.00,,---,0.00,VWS V14.00,2013-03-01 08:00:00,
2013-03-01 03:01:00,47.6,36.8,29.99,WNW,288,0.0,2.0,66,0.00,,---,0.00,VWS V14.00,2013-03-01 08:01:00,
2013-03-01 03:06:00,47.3,36.5,29.99,NW,305,0.0,2.0,66,0.00,,---,0.00,VWS V14.00,2013-03-01 08:06:00,
2013-03-01 03:11:00,47.1,36.3,29.99,WNW,293,0.0,2.0,66,0.00,,---,0.00,VWS V14.00,2013-03-01 08:11:00,
2013-03-01 03:16:00,46.8,36.4,29.99,WNW,293,0.0,2.0,67,0.00,,---,0.00,VWS V14.00,2013-03-01 08:16:00,
2013-03-01 03:21:00,46.6,36.6,29.99,WNW,290,0.0,2.0,68,0.00,,---,0.00,VWS V14.00,2013-03-01 08:21:00,
2013-03-01 03:26:00,46.5,36.5,29.99,WSW,256,0.0,0.0,68,0.00,,---,0.00,VWS V14.00,2013-03-01 08:26:00,
2013-03-01 03:30:00,46.3,37.1,29.99,WNW,296,0.0,2.0,70,0.00,,---,0.00,VWS V14.00,2013-03-01 08:30:00,
2013-03-01 03:31:00,46.3,36.3,29.99,WSW,257,0.0,0.0,68,0.00,,---,0.00,VWS V14.00,2013-03-01 08:31:00,
2013-03-01 03:36:00,46.2,36.6,29.99,WSW,256,0.0,0.0,69,0.00,,---,0.00,VWS V14.00,2013-03-01 08:36:00,
2013-03-01 03:41:00,46.1,36.9,29.99,WSW,257,0.0,0.0,70,0.00,,---,0.00,VWS V14.00,2013-03-01 08:41:00,
2013-03-01 03:46:00,46.1,36.9,29.99,WSW,256,0.0,0.0,70,0.00,,---,0.00,VWS V14.00,2013-03-01 08:46:00,
2013-03-01 03:51:00,46.0,37.1,29.99,WSW,256,0.0,0.0,71,0.00,,---,0.00,VWS V14.00,2013-03-01 08:51:00,
2013-03-01 03:56:00,45.9,37.0,29.99,WSW,256,0.0,0.0,71,0.00,,---,0.00,VWS V14.00,2013-03-01 08:56:00,
2013-03-01 04:00:00,46.3,37.4,29.99,WNW,302,0.0,3.0,71,0.00,,---,0.00,VWS V14.00,2013-03-01 09:00:00,
2013-03-01 04:01:00,46.0,37.1,29.99,WSW,256,0.0,0.0,71,0.00,,---,0.00,VWS V14.00,2013-03-01 09:01:00,
2013-03-01 04:06:00,46.0,37.1,30.00,NNW,340,0.0,1.0,71,0.00,,---,0.00,VWS V14.00,2013-03-01 09:06:00,
2013-03-01 04:11:00,46.1,37.2,29.99,WNW,292,0.0,1.0,71,0.00,,---,0.00,VWS V14.00,2013-03-01 09:11:00,
2013-03-01 04:16:00,46.2,37.3,30.00,WNW,297,0.0,1.0,71,0.00,,---,0.00,VWS V14.00,2013-03-01 09:16:00,
2013-03-01 04:21:00,46.3,37.4,29.99,WNW,299,0.0,1.0,71,0.00,,---,0.00,VWS V14.00,2013-03-01 09:21:00,
2013-03-01 04:26:00,46.3,37.4,29.99,WNW,297,0.0,0.0,71,0.00,,---,0.00,VWS V14.00,2013-03-01 09:26:00,
2013-03-01 04:30:00,46.4,36.0,29.99,ENE,70,3.0,7.0,67,0.00,,---,0.00,VWS V14.00,2013-03-01 09:30:00,
2013-03-01 04:31:00,46.3,37.4,29.99,WNW,294,0.0,1.0,71,0.00,,---,0.00,VWS V14.00,2013-03-01 09:31:00,
2013-03-01 04:36:00,46.3,37.4,30.00,WNW,295,0.0,1.0,71,0.00,,---,0.00,VWS V14.00,2013-03-01 09:36:00,
2013-03-01 04:41:00,46.3,37.4,29.99,West,276,0.0,1.0,71,0.00,,---,0.00,VWS V14.00,2013-03-01 09:41:00,
2013-03-01 04:46:00,46.2,37.3,29.99,NNW,333,1.0,2.0,71,0.00,,---,0.00,VWS V14.00,2013-03-01 09:46:00,
2013-03-01 04:51:00,46.2,37.3,29.99,WNW,292,2.0,2.0,71,0.00,,---,0.00,VWS V14.00,2013-03-01 09:51:00,
2013-03-01 04:56:00,46.3,37.4,29.99,WNW,301,0.0,0.0,71,0.00,,---,0.00,VWS V14.00,2013-03-01 09:56:00,
2013-03-01 05:00:00,45.9,35.6,29.99,NNW,335,1.0,7.0,67,0.00,,---,0.00,VWS V14.00,2013-03-01 10:00:00,
2013-03-01 05:01:00,46.3,37.1,29.99,WNW,288,0.0,2.0,70,0.00,,---,0.00,VWS V14.00,2013-03-01 10:01:00,
2013-03-01 05:06:00,46.3,37.1,29.99,North,5,0.0,2.0,70,0.00,,---,0.00,VWS V14.00,2013-03-01 10:06:00,
2013-03-01 05:11:00,46.4,36.8,29.99,WNW,291,1.0,6.0,69,0.00,,---,0.00,VWS V14.00,2013-03-01 10:11:00,
2013-03-01 05:16:00,46.4,36.8,29.99,SW,222,0.0,6.0,69,0.00,,---,0.00,VWS V14.00,2013-03-01 10:16:00,
2013-03-01 05:21:00,46.4,36.4,29.99,NW,308,3.0,7.0,68,0.00,,---,0.00,VWS V14.00,2013-03-01 10:21:00,
2013-03-01 05:26:00,46.4,36.0,29.99,West,270,0.0,4.0,67,0.00,,---,0.00,VWS V14.00,2013-03-01 10:26:00,
2013-03-01 05:30:00,45.3,35.0,30.01,NW,307,1.0,7.0,67,0.00,,---,0.00,VWS V14.00,2013-03-01 10:30:00,
2013-03-01 05:31:00,46.4,36.0,29.99,NE,53,2.0,7.0,67,0.00,,---,0.00,VWS V14.00,2013-03-01 10:31:00,
2013-03-01 05:36:00,46.3,36.0,29.99,North,351,0.0,7.0,67,0.00,,---,0.00,VWS V14.00,2013-03-01 10:36:00,
2013-03-01 05:41:00,46.1,35.8,29.98,NW,314,0.0,7.0,67,0.00,,---,0.00,VWS V14.00,2013-03-01 10:41:00,
2013-03-01 05:46:00,46.1,35.8,29.98,NNW,333,1.0,7.0,67,0.00,,---,0.00,VWS V14.00,2013-03-01 10:46:00,
2013-03-01 05:51:00,46.0,35.7,29.98,NE,42,2.0,7.0,67,0.00,,---,0.00,VWS V14.00,2013-03-01 10:51:00,
2013-03-01 05:56:00,45.9,36.0,29.99,NNW,330,0.0,1.0,68,0.00,,---,0.00,VWS V14.00,2013-03-01 10:56:00,
2013-03-01 06:00:00,44.4,33.8,30.01,WNW,293,2.0,8.0,66,0.00,,---,0.00,VWS V14.00,2013-03-01 11:00:00,
2013-03-01 06:01:00,45.7,35.8,29.99,NNE,33,1.0,3.0,68,0.00,,---,0.00,VWS V14.00,2013-03-01 11:01:00,
2013-03-01 06:06:00,45.7,35.8,30.00,WNW,290,0.0,3.0,68,0.00,,---,0.00,VWS V14.00,2013-03-01 11:06:00,
2013-03-01 06:11:00,45.5,35.2,30.00,WNW,303,1.0,6.0,67,0.00,,---,0.00,VWS V14.00,2013-03-01 11:11:00,
2013-03-01 06:16:00,45.5,35.2,30.00,NW,304,3.0,7.0,67,0.00,,---,0.00,VWS V14.00,2013-03-01 11:16:00,
2013-03-01 06:21:00,45.3,35.0,30.01,NW,316,0.0,7.0,67,0.00,,---,0.00,VWS V14.00,2013-03-01 11:21:00,
2013-03-01 06:26:00,45.2,34.5,30.01,West,280,3.0,5.0,66,0.00,,---,0.00,VWS V14.00,2013-03-01 11:26:00,
2013-03-01 06:30:00,44.1,33.9,30.03,WNW,301,1.0,5.0,67,0.00,,---,0.00,VWS V14.00,2013-03-01 11:30:00,
2013-03-01 06:31:00,45.1,34.8,30.01,NNW,340,0.0,5.0,67,0.00,,---,0.00,VWS V14.00,2013-03-01 11:31:00,
2013-03-01 06:36:00,44.9,34.6,30.01,NNW,343,0.0,6.0,67,0.00,,---,0.00,VWS V14.00,2013-03-01 11:36:00,
2013-03-01 06:41:00,44.8,34.5,30.01,NNW,332,1.0,8.0,67,0.00,,---,0.00,VWS V14.00,2013-03-01 11:41:00,
2013-03-01 06:46:00,44.6,34.3,30.01,NNW,335,2.0,8.0,67,0.00,,---,0.00,VWS V14.00,2013-03-01 11:46:00,
2013-03-01 06:51:00,44.5,34.2,30.01,WNW,284,1.0,8.0,67,0.00,,---,0.00,VWS V14.00,2013-03-01 11:51:00,
2013-03-01 06:56:00,44.4,34.1,30.02,WNW,298,2.0,5.0,67,0.00,,---,0.00,VWS V14.00,2013-03-01 11:56:00,
2013-03-01 07:00:00,44.1,33.1,30.03,NNW,343,6.0,10.0,65,0.00,,---,0.00,VWS V14.00,2013-03-01 12:00:00,
2013-03-01 07:01:00,44.3,34.0,30.02,North,10,2.0,5.0,67,0.00,,---,0.00,VWS V14.00,2013-03-01 12:01:00,
2013-03-01 07:06:00,44.3,34.0,30.02,WNW,297,0.0,5.0,67,0.00,,---,0.00,VWS V14.00,2013-03-01 12:06:00,
2013-03-01 07:11:00,44.2,34.0,30.02,WNW,301,1.0,5.0,67,0.00,,---,0.00,VWS V14.00,2013-03-01 12:11:00,
2013-03-01 07:16:00,44.1,33.9,30.02,WNW,291,1.0,5.0,67,0.00,,---,0.00,VWS V14.00,2013-03-01 12:16:00,
2013-03-01 07:21:00,44.1,34.2,30.02,NNE,18,0.0,5.0,68,0.00,,---,0.00,VWS V14.00,2013-03-01 12:21:00,
2013-03-01 07:26:00,44.1,33.9,30.03,WNW,299,3.0,3.0,67,0.00,,---,0.00,VWS V14.00,2013-03-01 12:26:00,
2013-03-01 07:30:00,44.2,32.8,30.03,NW,320,0.0,10.0,64,0.00,,---,0.00,VWS V14.00,2013-03-01 12:30:00,
2013-03-01 07:31:00,44.1,33.9,30.03,NNE,20,2.0,4.0,67,0.00,,---,0.00,VWS V14.00,2013-03-01 12:31:00,
2013-03-01 07:36:00,44.1,34.2,30.03,North,349,1.0,5.0,68,0.00,,---,0.00,VWS V14.00,2013-03-01 12:36:00,
2013-03-01 07:41:00,44.1,33.9,30.03,NNW,342,3.0,8.0,67,0.00,,---,0.00,VWS V14.00,2013-03-01 12:41:00,
2013-03-01 07:46:00,44.1,33.1,30.02,NW,309,4.0,8.0,65,0.00,,---,0.00,VWS V14.00,2013-03-01 12:46:00,
2013-03-01 07:51:00,44.1,33.1,30.03,NW,318,5.0,10.0,65,0.00,,---,0.00,VWS V14.00,2013-03-01 12:51:00,
2013-03-01 07:56:00,44.1,32.7,30.03,NW,314,4.0,9.0,64,0.00,,---,0.00,VWS V14.00,2013-03-01 12:56:00,
2013-03-01 08:00:00,44.2,32.8,30.03,WNW,290,3.0,10.0,64,0.00,,---,0.00,VWS V14.00,2013-03-01 13:00:00,
2013-03-01 08:05:00,44.2,32.8,30.03,NNE,18,3.0,10.0,64,0.00,,---,0.00,VWS V14.00,2013-03-01 13:05:00,
2013-03-01 08:10:00,44.2,32.8,30.03,WNW,293,7.0,10.0,64,0.00,,---,0.00,VWS V14.00,2013-03-01 13:10:00,
2013-03-01 08:15:00,44.2,32.8,30.03,West,277,2.0,10.0,64,0.00,,---,0.00,VWS V14.00,2013-03-01 13:15:00,
2013-03-01 08:20:00,44.1,32.7,30.04,NW,307,4.0,10.0,64,0.00,,---,0.00,VWS V14.00,2013-03-01 13:20:00,
2013-03-01 08:25:00,44.2,33.2,30.03,West,264,1.0,3.0,65,0.00,,---,0.00,VWS V14.00,2013-03-01 13:25:00,
2013-03-01 08:30:00,44.2,33.2,30.04,NW,307,2.0,7.0,65,0.00,,---,0.00,VWS V14.00,2013-03-01 13:30:00,
2013-03-01 08:35:00,44.3,33.3,30.04,NW,309,3.0,7.0,65,0.00,,---,0.00,VWS V14.00,2013-03-01 13:35:00,
2013-03-01 08:40:00,44.3,33.3,30.04,NW,312,2.0,7.0,65,0.00,,---,0.00,VWS V14.00,2013-03-01 13:40:00,
2013-03-01 08:45:00,44.3,33.3,30.05,WNW,284,1.0,7.0,65,0.00,,---,0.00,VWS V14.00,2013-03-01 13:45:00,
2013-03-01 08:50:00,44.5,33.9,30.05,North,356,4.0,7.0,66,0.00,,---,0.00,VWS V14.00,2013-03-01 13:50:00,
2013-03-01 08:55:00,44.3,32.9,30.04,NNW,342,5.0,13.0,64,0.00,,---,0.00,VWS V14.00,2013-03-01 13:55:00,
2013-03-01 09:00:00,44.2,33.2,30.04,NNW,347,2.0,13.0,65,0.00,,---,0.00,VWS V14.00,2013-03-01 14:00:00,
2013-03-01 09:05:00,44.3,33.7,30.05,WNW,283,1.0,13.0,66,0.00,,---,0.00,VWS V14.00,2013-03-01 14:05:00,
2013-03-01 09:10:00,44.3,33.3,30.05,WNW,283,0.0,13.0,65,0.00,,---,0.00,VWS V14.00,2013-03-01 14:10:00,
2013-03-01 09:15:00,44.4,33.8,30.05,NW,314,3.0,13.0,66,0.00,,---,0.00,VWS V14.00,2013-03-01 14:15:00,
2013-03-01 09:20:00,44.3,33.3,30.05,WNW,302,4.0,13.0,65,0.00,,---,0.00,VWS V14.00,2013-03-01 14:20:00,
2013-03-01 09:25:00,44.3,33.3,30.05,NW,314,2.0,6.0,65,0.00,,---,0.00,VWS V14.00,2013-03-01 14:25:00,
2013-03-01 09:30:00,44.4,33.0,30.06,NW,321,7.0,8.0,64,0.00,,---,0.00,VWS V14.00,2013-03-01 14:30:00,
2013-03-01 09:35:00,44.4,32.6,30.06,NNW,340,7.0,11.0,63,0.00,,---,0.00,VWS V14.00,2013-03-01 14:35:00,
2013-03-01 09:40:00,44.5,32.7,30.06,WNW,286,4.0,11.0,63,0.00,,---,0.00,VWS V14.00,2013-03-01 14:40:00,
2013-03-01 09:45:00,44.5,32.7,30.06,WSW,252,3.0,11.0,63,0.00,,---,0.00,VWS V14.00,2013-03-01 14:45:00,
2013-03-01 09:50:00,44.7,32.9,30.06,ENE,71,2.0,11.0,63,0.00,,---,0.00,VWS V14.00,2013-03-01 14:50:00,
2013-03-01 09:55:00,44.7,32.5,30.06,WNW,288,2.0,8.0,62,0.00,,---,0.00,VWS V14.00,2013-03-01 14:55:00,
2013-03-01 10:00:00,44.8,32.6,30.06,WNW,297,2.0,8.0,62,0.00,,---,0.00,VWS V14.00,2013-03-01 15:00:00,
2013-03-01 10:05:00,44.8,33.0,30.06,NW,326,5.0,8.0,63,0.00,,---,0.00,VWS V14.00,2013-03-01 15:05:00,
2013-03-01 10:10:00,45.0,33.2,30.06,WSW,245,2.0,8.0,63,0.00,,---,0.00,VWS V14.00,2013-03-01 15:10:00,
2013-03-01 10:15:00,45.3,33.1,30.06,NNW,340,2.0,8.0,62,0.00,,---,0.00,VWS V14.00,2013-03-01 15:15:00,
2013-03-01 10:20:00,45.7,33.0,30.06,WNW,287,0.0,8.0,61,0.00,,---,0.00,VWS V14.00,2013-03-01 15:20:00,
2013-03-01 10:25:00,45.8,32.7,30.06,NNW,338,2.0,3.0,60,0.00,,---,0.00,VWS V14.00,2013-03-01 15:25:00,
2013-03-01 10:30:00,45.6,32.5,30.06,NW,321,3.0,7.0,60,0.00,,---,0.00,VWS V14.00,2013-03-01 15:30:00,
2013-03-01 10:35:00,45.7,33.0,30.06,North,11,2.0,8.0,61,0.00,,---,0.00,VWS V14.00,2013-03-01 15:35:00,
2013-03-01 10:40:00,45.8,32.7,30.06,North,5,2.0,8.0,60,0.00,,---,0.00,VWS V14.00,2013-03-01 15:40:00,
2013-03-01 10:45:00,46.1,33.0,30.06,WNW,285,4.0,8.0,60,0.00,,---,0.00,VWS V14.00,2013-03-01 15:45:00,
2013-03-01 10:50:00,46.5,33.8,30.06,WNW,282,2.0,8.0,61,0.00,,---,0.00,VWS V14.00,2013-03-01 15:50:00,
2013-03-01 10:55:00,47.4,34.2,30.06,West,280,1.0,3.0,60,0.00,,---,0.00,VWS V14.00,2013-03-01 15:55:00,
2013-03-01 11:00:00,47.4,33.4,30.06,WSW,257,2.0,9.0,58,0.00,,---,0.00,VWS V14.00,2013-03-01 16:00:00,
2013-03-01 11:05:00,48.4,34.3,30.06,WSW,258,6.0,9.0,58,0.00,,---,0.00,VWS V14.00,2013-03-01 16:05:00,
2013-03-01 11:10:00,48.2,33.7,30.06,WNW,292,2.0,9.0,57,0.00,,---,0.00,VWS V14.00,2013-03-01 16:10:00,
2013-03-01 11:15:00,48.1,33.6,30.06,NW,319,2.0,9.0,57,0.00,,---,0.00,VWS V14.00,2013-03-01 16:15:00,
2013-03-01 11:20:00,48.0,33.5,30.05,NW,305,3.0,10.0,57,0.00,,---,0.00,VWS V14.00,2013-03-01 16:20:00,
2013-03-01 11:25:00,48.3,33.8,30.05,WNW,293,3.0,7.0,57,0.00,,---,0.00,VWS V14.00,2013-03-01 16:25:00,
2013-03-01 11:30:00,48.5,34.0,30.05,WNW,293,2.0,7.0,57,0.00,,---,0.00,VWS V14.00,2013-03-01 16:30:00,
2013-03-01 11:35:00,48.7,33.7,30.05,WNW,290,1.0,7.0,56,0.00,,---,0.00,VWS V14.00,2013-03-01 16:35:00,
2013-03-01 11:40:00,48.6,33.6,30.05,WNW,288,2.0,7.0,56,0.00,,---,0.00,VWS V14.00,2013-03-01 16:40:00,
2013-03-01 11:45:00,49.4,33.9,30.05,WNW,293,5.0,7.0,55,0.00,,---,0.00,VWS V14.00,2013-03-01 16:45:00,
2013-03-01 11:50:00,48.9,33.5,30.05,West,278,4.0,8.0,55,0.00,,---,0.00,VWS V14.00,2013-03-01 16:50:00,
2013-03-01 11:55:00,48.7,33.7,30.05,West,281,3.0,6.0,56,0.00,,---,0.00,VWS V14.00,2013-03-01 16:55:00,
2013-03-01 12:00:00,48.6,33.6,30.04,WNW,293,2.0,8.0,56,0.00,,---,0.00,VWS V14.00,2013-03-01 17:00:00,
2013-03-01 12:05:00,48.9,33.9,30.04,NNE,12,1.0,8.0,56,0.00,,---,0.00,VWS V14.00,2013-03-01 17:05:00,
2013-03-01 12:10:00,49.1,34.1,30.04,NNW,344,1.0,8.0,56,0.00,,---,0.00,VWS V14.00,2013-03-01 17:10:00,
2013-03-01 12:15:00,49.4,33.9,30.04,NNE,22,2.0,8.0,55,0.00,,---,0.00,VWS V14.00,2013-03-01 17:15:00,
2013-03-01 12:20:00,49.9,34.8,30.04,NNE,18,2.0,8.0,56,0.00,,---,0.00,VWS V14.00,2013-03-01 17:20:00,
2013-03-01 12:25:00,50.3,34.8,30.03,WNW,287,2.0,3.0,55,0.00,,---,0.00,VWS V14.00,2013-03-01 17:25:00,
2013-03-01 12:30:00,50.3,33.8,30.03,NW,304,2.0,8.0,53,0.00,,---,0.00,VWS V14.00,2013-03-01 17:30:00,
2013-03-01 12:35:00,50.4,34.4,30.03,West,269,4.0,8.0,54,0.00,,---,0.00,VWS V14.00,2013-03-01 17:35:00,
2013-03-01 12:40:00,50.7,34.7,30.03,NNW,332,3.0,8.0,54,0.00,,---,0.00,VWS V14.00,2013-03-01 17:40:00,
2013-03-01 12:45:00,50.5,33.5,30.03,WNW,288,5.0,8.0,52,0.00,,---,0.00,VWS V14.00,2013-03-01 17:45:00,
2013-03-01 12:50:00,50.6,34.1,30.02,WNW,295,2.0,8.0,53,0.00,,---,0.00,VWS V14.00,2013-03-01 17:50:00,
2013-03-01 12:55:00,50.8,34.3,30.02,WNW,301,0.0,2.0,53,0.00,,---,0.00,VWS V14.00,2013-03-01 17:55:00,
2013-03-01 13:00:00,51.0,34.5,30.01,WSW,247,2.0,5.0,53,0.00,,---,0.00,VWS V14.00,2013-03-01 18:00:00,
2013-03-01 13:05:00,50.8,34.8,30.01,West,260,2.0,6.0,54,0.00,,---,0.00,VWS V14.00,2013-03-01 18:05:00,
2013-03-01 13:10:00,50.8,34.8,30.01,WNW,302,5.0,7.0,54,0.00,,---,0.00,VWS V14.00,2013-03-01 18:10:00,
2013-03-01 13:15:00,50.7,34.2,30.00,NW,309,6.0,8.0,53,0.00,,---,0.00,VWS V14.00,2013-03-01 18:15:00,
2013-03-01 13:20:00,50.6,34.6,30.00,West,281,0.0,8.0,54,0.00,,---,0.00,VWS V14.00,2013-03-01 18:20:00,
2013-03-01 13:25:00,51.2,34.2,30.00,North,349,3.0,3.0,52,0.00,,---,0.00,VWS V14.00,2013-03-01 18:25:00,
2013-03-01 13:30:00,51.3,34.3,30.00,West,274,0.0,7.0,52,0.00,,---,0.00,VWS V14.00,2013-03-01 18:30:00,
2013-03-01 13:35:00,51.4,34.4,30.00,WNW,284,2.0,7.0,52,0.00,,---,0.00,VWS V14.00,2013-03-01 18:35:00,
2013-03-01 13:40:00,51.2,33.7,30.00,West,280,2.0,7.0,51,0.00,,---,0.00,VWS V14.00,2013-03-01 18:40:00,
2013-03-01 13:45:00,50.9,33.4,29.99,West,280,6.0,8.0,51,0.00,,---,0.00,VWS V14.00,2013-03-01 18:45:00,
2013-03-01 13:50:00,50.8,32.8,30.00,West,276,5.0,8.0,50,0.00,,---,0.00,VWS V14.00,2013-03-01 18:50:00,
2013-03-01 13:55:00,50.9,32.9,29.99,ENE,64,2.0,8.0,50,0.00,,---,0.00,VWS V14.00,2013-03-01 18:55:00,
2013-03-01 14:00:00,51.0,33.0,29.99,WNW,301,7.0,8.0,50,0.00,,---,0.00,VWS V14.00,2013-03-01 19:00:00,
2013-03-01 14:05:00,50.8,33.3,29.99,WNW,284,0.0,8.0,51,0.00,,---,0.00,VWS V14.00,2013-03-01 19:05:00,
2013-03-01 14:10:00,51.0,33.0,29.98,NW,315,2.0,8.0,50,0.00,,---,0.00,VWS V14.00,2013-03-01 19:10:00,
2013-03-01 14:15:00,51.1,33.6,29.98,WNW,298,5.0,8.0,51,0.00,,---,0.00,VWS V14.00,2013-03-01 19:15:00,
2013-03-01 14:20:00,51.0,33.5,29.99,WNW,288,5.0,8.0,51,0.00,,---,0.00,VWS V14.00,2013-03-01 19:20:00,
2013-03-01 14:25:00,51.0,34.0,29.99,NW,311,6.0,6.0,52,0.00,,---,0.00,VWS V14.00,2013-03-01 19:25:00,
2013-03-01 14:30:00,50.8,32.8,29.99,WSW,240,4.0,9.0,50,0.00,,---,0.00,VWS V14.00,2013-03-01 19:30:00,
2013-03-01 14:35:00,50.6,32.7,30.00,West,274,3.0,9.0,50,0.00,,---,0.00,VWS V14.00,2013-03-01 19:35:00,
2013-03-01 14:40:00,50.3,32.9,29.99,NW,326,2.0,9.0,51,0.00,,---,0.00,VWS V14.00,2013-03-01 19:40:00,
2013-03-01 14:45:00,50.4,33.0,29.99,West,269,2.0,9.0,51,0.00,,---,0.00,VWS V14.00,2013-03-01 19:45:00,
2013-03-01 14:50:00,50.2,32.8,29.98,NNE,25,1.0,9.0,51,0.00,,---,0.00,VWS V14.00,2013-03-01 19:50:00,
2013-03-01 14:55:00,50.3,32.9,29.98,NNW,336,2.0,5.0,51,0.00,,---,0.00,VWS V14.00,2013-03-01 19:55:00,
2013-03-01 15:00:00,50.0,33.1,29.99,West,274,1.0,8.0,52,0.00,,---,0.00,VWS V14.00,2013-03-01 20:00:00,
2013-03-01 15:05:00,49.9,33.0,29.99,NW,304,2.0,8.0,52,0.00,,---,0.00,VWS V14.00,2013-03-01 20:05:00,
2013-03-01 15:10:00,49.9,33.5,29.99,West,278,0.0,8.0,53,0.00,,---,0.00,VWS V14.00,2013-03-01 20:10:00,
2013-03-01 15:15:00,50.0,33.1,29.99,West,267,0.0,8.0,52,0.00,,---,0.00,VWS V14.00,2013-03-01 20:15:00,
2013-03-01 15:20:00,49.9,33.0,29.99,North,349,3.0,8.0,52,0.00,,---,0.00,VWS V14.00,2013-03-01 20:20:00,
2013-03-01 15:25:00,49.8,32.9,29.98,WNW,289,4.0,4.0,52,0.00,,---,0.00,VWS V14.00,2013-03-01 20:25:00,
2013-03-01 15:30:00,49.7,32.8,29.99,WNW,290,2.0,7.0,52,0.00,,---,0.00,VWS V14.00,2013-03-01 20:30:00,
2013-03-01 15:35:00,49.7,32.8,29.99,NNW,330,1.0,7.0,52,0.00,,---,0.00,VWS V14.00,2013-03-01 20:35:00,
2013-03-01 15:40:00,49.7,32.8,29.98,NW,315,2.0,7.0,52,0.00,,---,0.00,VWS V14.00,2013-03-01 20:40:00,
2013-03-01 15:45:00,49.8,33.4,29.98,WNW,294,1.0,7.0,53,0.00,,---,0.00,VWS V14.00,2013-03-01 20:45:00,
2013-03-01 15:50:00,49.7,32.8,29.98,West,270,4.0,7.0,52,0.00,,---,0.00,VWS V14.00,2013-03-01 20:50:00,
2013-03-01 15:55:00,49.5,33.1,29.99,West,262,4.0,8.0,53,0.00,,---,0.00,VWS V14.00,2013-03-01 20:55:00,
2013-03-01 16:00:00,49.5,33.1,29.98,WNW,285,6.0,8.0,53,0.00,,---,0.00,VWS V14.00,2013-03-01 21:00:00,
2013-03-01 16:05:00,49.4,33.0,29.98,WSW,257,1.0,8.0,53,0.00,,---,0.00,VWS V14.00,2013-03-01 21:05:00,
2013-03-01 16:10:00,49.4,33.0,29.98,NW,312,4.0,8.0,53,0.00,,---,0.00,VWS V14.00,2013-03-01 21:10:00,
2013-03-01 16:15:00,49.5,33.6,29.98,NW,314,3.0,8.0,54,0.00,,---,0.00,VWS V14.00,2013-03-01 21:15:00,
2013-03-01 16:20:00,49.4,33.5,29.98,WNW,293,1.0,8.0,54,0.00,,---,0.00,VWS V14.00,2013-03-01 21:20:00,
2013-03-01 16:25:00,49.4,33.9,29.98,West,275,2.0,3.0,55,0.00,,---,0.00,VWS V14.00,2013-03-01 21:25:00,
2013-03-01 16:30:00,49.3,34.3,29.98,West,271,1.0,5.0,56,0.00,,---,0.00,VWS V14.00,2013-03-01 21:30:00,
2013-03-01 16:35:00,49.2,34.2,29.98,WNW,291,0.0,5.0,56,0.00,,---,0.00,VWS V14.00,2013-03-01 21:35:00,
2013-03-01 16:40:00,49.3,34.7,29.98,NNW,329,0.0,5.0,57,0.00,,---,0.00,VWS V14.00,2013-03-01 21:40:00,
2013-03-01 16:45:00,49.3,35.2,29.98,West,273,0.0,5.0,58,0.00,,---,0.00,VWS V14.00,2013-03-01 21:45:00,
2013-03-01 16:50:00,49.2,34.6,29.98,WNW,295,0.0,5.0,57,0.00,,---,0.00,VWS V14.00,2013-03-01 21:50:00,
2013-03-01 16:55:00,49.2,34.2,29.98,WNW,295,0.0,2.0,56,0.00,,---,0.00,VWS V14.00,2013-03-01 21:55:00,
2013-03-01 17:00:00,49.2,34.6,29.98,West,280,1.0,3.0,57,0.00,,---,0.00,VWS V14.00,2013-03-01 22:00:00,
2013-03-01 17:05:00,49.1,35.0,29.98,WNW,293,0.0,5.0,58,0.00,,---,0.00,VWS V14.00,2013-03-01 22:05:00,
2013-03-01 17:10:00,49.1,35.0,29.98,West,280,1.0,5.0,58,0.00,,---,0.00,VWS V14.00,2013-03-01 22:10:00,
2013-03-01 17:15:00,49.1,35.0,29.99,WNW,297,0.0,5.0,58,0.00,,---,0.00,VWS V14.00,2013-03-01 22:15:00,
2013-03-01 17:20:00,49.0,34.9,29.99,WNW,295,0.0,5.0,58,0.00,,---,0.00,VWS V14.00,2013-03-01 22:20:00,
2013-03-01 17:25:00,49.1,35.8,29.99,West,263,0.0,0.0,60,0.00,,---,0.00,VWS V14.00,2013-03-01 22:25:00,
2013-03-01 17:30:00,49.0,35.7,29.98,West,262,0.0,0.0,60,0.00,,---,0.00,VWS V14.00,2013-03-01 22:30:00,
2013-03-01 17:35:00,49.0,35.7,29.98,West,263,0.0,0.0,60,0.00,,---,0.00,VWS V14.00,2013-03-01 22:35:00,
2013-03-01 17:40:00,48.9,35.6,29.98,WNW,294,0.0,0.0,60,0.00,,---,0.00,VWS V14.00,2013-03-01 22:40:00,
2013-03-01 17:45:00,48.8,36.0,29.98,WNW,292,0.0,0.0,61,0.00,,---,0.00,VWS V14.00,2013-03-01 22:45:00,
2013-03-01 17:50:00,48.7,35.9,29.99,West,277,0.0,0.0,61,0.00,,---,0.00,VWS V14.00,2013-03-01 22:50:00,
2013-03-01 17:55:00,48.5,36.1,29.99,West,268,0.0,0.0,62,0.00,,---,0.00,VWS V14.00,2013-03-01 22:55:00,
2013-03-01 18:00:00,48.4,36.4,29.99,West,269,0.0,0.0,63,0.00,,---,0.00,VWS V14.00,2013-03-01 23:00:00,
2013-03-01 18:05:00,48.2,36.6,29.99,West,268,0.0,0.0,64,0.00,,---,0.00,VWS V14.00,2013-03-01 23:05:00,
2013-03-01 18:10:00,48.0,36.8,29.99,West,268,0.0,0.0,65,0.00,,---,0.00,VWS V14.00,2013-03-01 23:10:00,
2013-03-01 18:15:00,47.8,37.0,29.99,West,269,0.0,0.0,66,0.00,,---,0.00,VWS V14.00,2013-03-01 23:15:00,
2013-03-01 18:20:00,47.6,36.8,29.99,West,268,0.0,0.0,66,0.00,,---,0.00,VWS V14.00,2013-03-01 23:20:00,
2013-03-01 18:25:00,47.5,37.1,29.99,West,269,0.0,0.0,67,0.00,,---,0.00,VWS V14.00,2013-03-01 23:25:00,
2013-03-01 18:30:00,47.4,37.0,29.99,West,269,0.0,0.0,67,0.00,,---,0.00,VWS V14.00,2013-03-01 23:30:00,
2013-03-01 18:35:00,47.3,36.9,29.99,West,269,0.0,0.0,67,0.00,,---,0.00,VWS V14.00,2013-03-01 23:35:00,
2013-03-01 18:40:00,47.1,37.1,30.00,West,269,0.0,0.0,68,0.00,,---,0.00,VWS V14.00,2013-03-01 23:40:00,
2013-03-01 18:45:00,47.0,37.0,30.00,West,268,0.0,0.0,68,0.00,,---,0.00,VWS V14.00,2013-03-01 23:45:00,
2013-03-01 18:50:00,46.9,37.3,30.00,West,269,0.0,0.0,69,0.00,,---,0.00,VWS V14.00,2013-03-01 23:50:00,
2013-03-01 18:55:00,46.7,37.1,30.00,West,269,0.0,0.0,69,0.00,,---,0.00,VWS V14.00,2013-03-01 23:55:00,
2013-03-01 19:00:00,46.7,37.5,30.01,West,269,0.0,0.0,70,0.00,,---,0.00,VWS V14.00,2013-03-02 00:00:00,
2013-03-01 19:05:00,46.5,37.6,30.01,West,268,0.0,0.0,71,0.00,,---,0.00,VWS V14.00,2013-03-02 00:05:00,
2013-03-01 19:10:00,46.4,37.5,30.01,West,268,0.0,0.0,71,0.00,,---,0.00,VWS V14.00,2013-03-02 00:10:00,
2013-03-01 19:15:00,46.3,37.8,30.01,West,268,0.0,0.0,72,0.00,,---,0.00,VWS V14.00,2013-03-02 00:15:00,
2013-03-01 19:20:00,46.1,37.9,30.01,West,269,0.0,0.0,73,0.00,,---,0.00,VWS V14.00,2013-03-02 00:20:00,
2013-03-01 19:25:00,46.0,37.8,30.01,West,268,0.0,0.0,73,0.00,,---,0.00,VWS V14.00,2013-03-02 00:25:00,
2013-03-01 19:30:00,46.0,38.2,30.02,West,268,0.0,0.0,74,0.00,,---,0.00,VWS V14.00,2013-03-02 00:30:00,
2013-03-01 19:35:00,45.9,38.1,30.02,West,269,0.0,0.0,74,0.00,,---,0.00,VWS V14.00,2013-03-02 00:35:00,
2013-03-01 19:40:00,45.9,38.1,30.02,West,268,0.0,0.0,74,0.00,,---,0.00,VWS V14.00,2013-03-02 00:40:00,
2013-03-01 19:45:00,45.7,38.2,30.02,West,268,0.0,0.0,75,0.00,,---,0.00,VWS V14.00,2013-03-02 00:45:00,
2013-03-01 19:50:00,45.7,38.2,30.02,West,269,0.0,0.0,75,0.00,,---,0.00,VWS V14.00,2013-03-02 00:50:00,
2013-03-01 19:55:00,45.6,38.2,30.02,West,269,0.0,0.0,75,0.00,,---,0.00,VWS V14.00,2013-03-02 00:55:00,
2013-03-01 20:00:00,45.5,38.4,30.02,West,269,0.0,0.0,76,0.00,,---,0.00,VWS V14.00,2013-03-02 01:00:00,
2013-03-01 20:05:00,45.4,38.3,30.03,West,269,0.0,0.0,76,0.00,,---,0.00,VWS V14.00,2013-03-02 01:05:00,
2013-03-01 20:10:00,45.3,38.2,30.03,West,268,0.0,0.0,76,0.00,,---,0.00,VWS V14.00,2013-03-02 01:10:00,
2013-03-01 20:15:00,45.2,38.1,30.02,West,268,0.0,0.0,76,0.00,,---,0.00,VWS V14.00,2013-03-02 01:15:00,
2013-03-01 20:20:00,45.1,38.3,30.02,West,268,0.0,0.0,77,0.00,,---,0.00,VWS V14.00,2013-03-02 01:20:00,
2013-03-01 20:25:00,44.9,38.1,30.02,West,269,0.0,0.0,77,0.00,,---,0.00,VWS V14.00,2013-03-02 01:25:00,
2013-03-01 20:30:00,44.7,38.3,30.02,West,268,0.0,0.0,78,0.00,,---,0.00,VWS V14.00,2013-03-02 01:30:00,
2013-03-01 20:35:00,44.5,38.1,30.02,West,268,0.0,0.0,78,0.00,,---,0.00,VWS V14.00,2013-03-02 01:35:00,
2013-03-01 20:40:00,44.3,38.2,30.03,West,269,0.0,0.0,79,0.00,,---,0.00,VWS V14.00,2013-03-02 01:40:00,
2013-03-01 20:45:00,44.0,37.9,30.03,West,268,0.0,0.0,79,0.00,,---,0.00,VWS V14.00,2013-03-02 01:45:00,
2013-03-01 20:50:00,43.7,37.6,30.03,West,268,0.0,0.0,79,0.00,,---,0.00,VWS V14.00,2013-03-02 01:50:00,
2013-03-01 20:55:00,43.4,37.7,30.03,West,268,0.0,0.0,80,0.00,,---,0.00,VWS V14.00,2013-03-02 01:55:00,
2013-03-01 21:00:00,43.1,37.4,30.03,West,269,0.0,0.0,80,0.00,,---,0.00,VWS V14.00,2013-03-02 02:00:00,
2013-03-01 21:05:00,42.6,36.9,30.04,West,269,0.0,0.0,80,0.00,,---,0.00,VWS V14.00,2013-03-02 02:05:00,
2013-03-01 21:10:00,42.1,36.4,30.04,West,269,0.0,0.0,80,0.00,,---,0.00,VWS V14.00,2013-03-02 02:10:00,
2013-03-01 21:15:00,41.7,36.0,30.04,West,269,0.0,0.0,80,0.00,,---,0.00,VWS V14.00,2013-03-02 02:15:00,
2013-03-01 21:20:00,41.1,35.7,30.04,West,268,0.0,0.0,81,0.00,,---,0.00,VWS V14.00,2013-03-02 02:20:00,
2013-03-01 21:25:00,40.9,35.5,30.04,West,268,0.0,0.0,81,0.00,,---,0.00,VWS V14.00,2013-03-02 02:25:00,
2013-03-01 21:30:00,40.8,35.4,30.04,West,269,0.0,0.0,81,0.00,,---,0.00,VWS V14.00,2013-03-02 02:30:00,
2013-03-01 21:35:00,40.5,35.1,30.04,West,268,0.0,0.0,81,0.00,,---,0.00,VWS V14.00,2013-03-02 02:35:00,
2013-03-01 21:40:00,40.2,34.8,30.05,West,268,0.0,0.0,81,0.00,,---,0.00,VWS V14.00,2013-03-02 02:40:00,
2013-03-01 21:45:00,39.9,34.5,30.05,West,269,0.0,0.0,81,0.00,,---,0.00,VWS V14.00,2013-03-02 02:45:00,
2013-03-01 21:50:00,39.7,34.0,30.05,West,268,0.0,0.0,80,0.00,,---,0.00,VWS V14.00,2013-03-02 02:50:00,
2013-03-01 21:55:00,39.4,33.8,30.05,West,269,0.0,0.0,80,0.00,,---,0.00,VWS V14.00,2013-03-02 02:55:00,
2013-03-01 22:00:00,39.2,33.6,30.05,West,269,0.0,0.0,80,0.00,,---,0.00,VWS V14.00,2013-03-02 03:00:00,
2013-03-01 22:05:00,38.9,33.3,30.05,West,269,0.0,0.0,80,0.00,,---,0.00,VWS V14.00,2013-03-02 03:05:00,
2013-03-01 22:10:00,38.4,32.8,30.05,West,269,0.0,0.0,80,0.00,,---,0.00,VWS V14.00,2013-03-02 03:10:00,
2013-03-01 22:15:00,38.2,32.3,30.05,West,269,0.0,0.0,79,0.00,,---,0.00,VWS V14.00,2013-03-02 03:15:00,
2013-03-01 22:20:00,38.2,32.0,30.05,West,268,0.0,0.0,78,0.00,,---,0.00,VWS V14.00,2013-03-02 03:20:00,
2013-03-01 22:25:00,38.2,32.0,30.05,West,269,0.0,0.0,78,0.00,,---,0.00,VWS V14.00,2013-03-02 03:25:00,
2013-03-01 22:30:00,38.1,31.5,30.05,West,268,0.0,0.0,77,0.00,,---,0.00,VWS V14.00,2013-03-02 03:30:00,
2013-03-01 22:35:00,38.0,31.4,30.05,West,269,0.0,0.0,77,0.00,,---,0.00,VWS V14.00,2013-03-02 03:35:00,
2013-03-01 22:40:00,37.8,31.2,30.05,West,268,0.0,0.0,77,0.00,,---,0.00,VWS V14.00,2013-03-02 03:40:00,
2013-03-01 22:45:00,37.7,30.8,30.05,West,269,0.0,0.0,76,0.00,,---,0.00,VWS V14.00,2013-03-02 03:45:00,
2013-03-01 22:50:00,37.5,30.6,30.05,West,269,0.0,0.0,76,0.00,,---,0.00,VWS V14.00,2013-03-02 03:50:00,
2013-03-01 22:55:00,37.3,30.4,30.05,West,269,0.0,0.0,76,0.00,,---,0.00,VWS V14.00,2013-03-02 03:55:00,
2013-03-01 23:00:00,37.2,30.0,30.05,West,269,0.0,0.0,75,0.00,,---,0.00,VWS V14.00,2013-03-02 04:00:00,
2013-03-01 23:05:00,37.0,29.8,30.05,West,268,0.0,0.0,75,0.00,,---,0.00,VWS V14.00,2013-03-02 04:05:00,
2013-03-01 23:10:00,36.7,29.5,30.05,West,269,0.0,0.0,75,0.00,,---,0.00,VWS V14.00,2013-03-02 04:10:00,
2013-03-01 23:15:00,36.5,29.3,30.05,West,269,0.0,0.0,75,0.00,,---,0.00,VWS V14.00,2013-03-02 04:15:00,
2013-03-01 23:20:00,36.4,29.2,30.05,West,268,0.0,0.0,75,0.00,,---,0.00,VWS V14.00,2013-03-02 04:20:00,
2013-03-01 23:25:00,36.1,29.0,30.05,West,269,0.0,0.0,75,0.00,,---,0.00,VWS V14.00,2013-03-02 04:25:00,
2013-03-01 23:30:00,36.0,28.9,30.05,West,269,0.0,0.0,75,0.00,,---,0.00,VWS V14.00,2013-03-02 04:30:00,
2013-03-01 23:35:00,35.7,28.6,30.05,West,269,0.0,0.0,75,0.00,,---,0.00,VWS V14.00,2013-03-02 04:35:00,
2013-03-01 23:40:00,35.7,28.2,30.05,West,269,0.0,0.0,74,0.00,,---,0.00,VWS V14.00,2013-03-02 04:40:00,
2013-03-01 23:45:00,35.6,28.1,30.05,West,269,0.0,0.0,74,0.00,,---,0.00,VWS V14.00,2013-03-02 04:45:00,
2013-03-01 23:50:00,35.7,27.9,30.05,West,271,0.0,0.0,73,0.00,,---,0.00,VWS V14.00,2013-03-02 04:50:00,
2013-03-01 23:55:00,35.9,28.1,30.05,West,267,0.0,0.0,73,0.00,,---,0.00,VWS V14.00,2013-03-02 04:55:00,